sensor_id;sensor_type;location;lat;lon;timestamp;temperature;humidity
45104;DHT22;30865;51.288;4.572;2023-07-24T00:02:14;20.90;99.90
45104;DHT22;30865;51.288;4.572;2023-07-24T00:04:40;21.00;99.90
45104;DHT22;30865;51.288;4.572;2023-07-24T00:07:05;20.90;99.90
45104;DHT22;30865;51.288;4.572;2023-07-24T00:09:31;20.80;99.90
45104;DHT22;30865;51.288;4.572;2023-07-24T00:11:56;20.80;99.90
45104;DHT22;30865;51.288;4.572;2023-07-24T00:14:22;21.00;99.90
45104;DHT22;30865;51.288;4.572;2023-07-24T00:16:47;21.00;99.90
45104;DHT22;30865;51.288;4.572;2023-07-24T00:19:13;21.10;99.90
45104;DHT22;30865;51.288;4.572;2023-07-24T00:21:38;21.10;99.90
45104;DHT22;30865;51.288;4.572;2023-07-24T00:24:04;21.00;99.90
45104;DHT22;30865;51.288;4.572;2023-07-24T00:26:29;20.90;99.90
45104;DHT22;30865;51.288;4.572;2023-07-24T00:28:55;20.70;99.90
45104;DHT22;30865;51.288;4.572;2023-07-24T00:31:20;20.70;99.90
45104;DHT22;30865;51.288;4.572;2023-07-24T00:33:46;20.50;99.90
45104;DHT22;30865;51.288;4.572;2023-07-24T00:36:11;20.40;99.90
45104;DHT22;30865;51.288;4.572;2023-07-24T00:38:37;20.30;99.90
45104;DHT22;30865;51.288;4.572;2023-07-24T00:41:02;20.40;99.90
45104;DHT22;30865;51.288;4.572;2023-07-24T00:43:28;20.30;99.90
45104;DHT22;30865;51.288;4.572;2023-07-24T00:45:54;20.20;99.90
45104;DHT22;30865;51.288;4.572;2023-07-24T00:48:21;20.10;99.90
45104;DHT22;30865;51.288;4.572;2023-07-24T00:50:47;20.10;99.90
45104;DHT22;30865;51.288;4.572;2023-07-24T00:53:13;20.00;99.90
45104;DHT22;30865;51.288;4.572;2023-07-24T00:55:39;19.80;99.90
45104;DHT22;30865;51.288;4.572;2023-07-24T00:58:05;19.60;99.90
45104;DHT22;30865;51.288;4.572;2023-07-24T01:00:31;19.60;99.90
45104;DHT22;30865;51.288;4.572;2023-07-24T01:02:59;19.80;99.90
45104;DHT22;30865;51.288;4.572;2023-07-24T01:05:25;19.80;99.90
45104;DHT22;30865;51.288;4.572;2023-07-24T01:07:54;19.80;99.90
45104;DHT22;30865;51.288;4.572;2023-07-24T01:10:19;19.90;99.90
45104;DHT22;30865;51.288;4.572;2023-07-24T01:12:47;19.90;99.90
45104;DHT22;30865;51.288;4.572;2023-07-24T01:15:22;19.80;99.90
45104;DHT22;30865;51.288;4.572;2023-07-24T01:17:56;19.80;99.90
45104;DHT22;30865;51.288;4.572;2023-07-24T01:20:23;19.80;99.90
45104;DHT22;30865;51.288;4.572;2023-07-24T01:25:58;19.70;99.90
45104;DHT22;30865;51.288;4.572;2023-07-24T01:28:24;19.60;99.90
45104;DHT22;30865;51.288;4.572;2023-07-24T01:30:50;19.50;99.90
45104;DHT22;30865;51.288;4.572;2023-07-24T01:33:16;19.50;99.90
45104;DHT22;30865;51.288;4.572;2023-07-24T01:35:43;19.50;99.90
45104;DHT22;30865;51.288;4.572;2023-07-24T01:38:13;19.50;99.90
45104;DHT22;30865;51.288;4.572;2023-07-24T01:40:42;19.50;99.90
45104;DHT22;30865;51.288;4.572;2023-07-24T01:43:08;19.40;99.90
45104;DHT22;30865;51.288;4.572;2023-07-24T01:45:34;19.30;99.90
45104;DHT22;30865;51.288;4.572;2023-07-24T01:48:02;19.30;99.90
45104;DHT22;30865;51.288;4.572;2023-07-24T01:50:28;19.40;99.90
45104;DHT22;30865;51.288;4.572;2023-07-24T01:52:53;19.40;99.90
45104;DHT22;30865;51.288;4.572;2023-07-24T01:55:19;19.50;99.90
45104;DHT22;30865;51.288;4.572;2023-07-24T01:57:44;19.30;99.90
45104;DHT22;30865;51.288;4.572;2023-07-24T02:00:10;19.30;99.90
45104;DHT22;30865;51.288;4.572;2023-07-24T02:02:36;19.30;99.90
45104;DHT22;30865;51.288;4.572;2023-07-24T02:05:01;19.20;99.90
45104;DHT22;30865;51.288;4.572;2023-07-24T02:07:27;19.30;99.90
45104;DHT22;30865;51.288;4.572;2023-07-24T02:09:52;19.30;99.90
45104;DHT22;30865;51.288;4.572;2023-07-24T02:12:17;19.30;99.90
45104;DHT22;30865;51.288;4.572;2023-07-24T02:14:43;19.20;99.90
45104;DHT22;30865;51.288;4.572;2023-07-24T02:17:08;19.20;99.90
45104;DHT22;30865;51.288;4.572;2023-07-24T02:19:34;19.10;99.90
45104;DHT22;30865;51.288;4.572;2023-07-24T02:21:59;19.10;99.90
45104;DHT22;30865;51.288;4.572;2023-07-24T02:24:25;19.10;99.90
45104;DHT22;30865;51.288;4.572;2023-07-24T02:26:50;19.20;99.90
45104;DHT22;30865;51.288;4.572;2023-07-24T02:29:16;19.20;99.90
45104;DHT22;30865;51.288;4.572;2023-07-24T02:31:41;19.20;99.90
45104;DHT22;30865;51.288;4.572;2023-07-24T02:34:07;19.20;99.90
45104;DHT22;30865;51.288;4.572;2023-07-24T02:36:33;19.20;99.90
45104;DHT22;30865;51.288;4.572;2023-07-24T02:38:58;19.10;99.90
45104;DHT22;30865;51.288;4.572;2023-07-24T02:41:24;19.30;99.90
45104;DHT22;30865;51.288;4.572;2023-07-24T02:43:49;19.20;99.90
45104;DHT22;30865;51.288;4.572;2023-07-24T02:46:15;19.20;99.90
45104;DHT22;30865;51.288;4.572;2023-07-24T02:48:40;19.20;99.90
45104;DHT22;30865;51.288;4.572;2023-07-24T02:51:06;19.20;99.90
45104;DHT22;30865;51.288;4.572;2023-07-24T02:53:31;19.10;99.90
45104;DHT22;30865;51.288;4.572;2023-07-24T02:55:57;19.10;99.90
45104;DHT22;30865;51.288;4.572;2023-07-24T02:58:22;19.10;99.90
45104;DHT22;30865;51.288;4.572;2023-07-24T03:00:48;19.10;99.90
45104;DHT22;30865;51.288;4.572;2023-07-24T03:03:13;19.10;99.90
45104;DHT22;30865;51.288;4.572;2023-07-24T03:05:39;19.10;99.90
45104;DHT22;30865;51.288;4.572;2023-07-24T03:08:04;19.10;99.90
45104;DHT22;30865;51.288;4.572;2023-07-24T03:10:29;19.00;99.90
45104;DHT22;30865;51.288;4.572;2023-07-24T03:12:55;18.90;99.90
45104;DHT22;30865;51.288;4.572;2023-07-24T03:15:20;18.80;99.90
45104;DHT22;30865;51.288;4.572;2023-07-24T03:17:47;18.80;99.90
45104;DHT22;30865;51.288;4.572;2023-07-24T03:20:17;18.80;99.90
45104;DHT22;30865;51.288;4.572;2023-07-24T03:22:43;18.80;99.90
45104;DHT22;30865;51.288;4.572;2023-07-24T03:25:09;18.70;99.90
45104;DHT22;30865;51.288;4.572;2023-07-24T03:27:34;18.70;99.90
45104;DHT22;30865;51.288;4.572;2023-07-24T03:30:00;18.50;99.90
45104;DHT22;30865;51.288;4.572;2023-07-24T03:32:25;18.50;99.90
45104;DHT22;30865;51.288;4.572;2023-07-24T03:34:51;18.50;99.90
45104;DHT22;30865;51.288;4.572;2023-07-24T03:37:17;18.40;99.90
45104;DHT22;30865;51.288;4.572;2023-07-24T03:39:42;18.40;99.90
45104;DHT22;30865;51.288;4.572;2023-07-24T03:42:10;18.40;99.90
45104;DHT22;30865;51.288;4.572;2023-07-24T03:44:40;18.40;99.90
45104;DHT22;30865;51.288;4.572;2023-07-24T03:47:06;18.40;99.90
45104;DHT22;30865;51.288;4.572;2023-07-24T03:49:32;18.50;99.90
45104;DHT22;30865;51.288;4.572;2023-07-24T03:51:58;18.60;99.90
45104;DHT22;30865;51.288;4.572;2023-07-24T03:54:23;18.60;99.90
45104;DHT22;30865;51.288;4.572;2023-07-24T03:56:48;18.70;99.90
45104;DHT22;30865;51.288;4.572;2023-07-24T03:59:14;18.80;99.90
45104;DHT22;30865;51.288;4.572;2023-07-24T04:01:39;18.70;99.90
45104;DHT22;30865;51.288;4.572;2023-07-24T04:04:05;18.80;99.90
45104;DHT22;30865;51.288;4.572;2023-07-24T04:06:30;18.80;99.90
45104;DHT22;30865;51.288;4.572;2023-07-24T04:08:56;18.80;99.90
45104;DHT22;30865;51.288;4.572;2023-07-24T04:11:21;18.80;99.90
45104;DHT22;30865;51.288;4.572;2023-07-24T04:13:47;18.90;99.90
45104;DHT22;30865;51.288;4.572;2023-07-24T04:16:12;18.90;99.90
45104;DHT22;30865;51.288;4.572;2023-07-24T04:18:38;18.90;99.90
45104;DHT22;30865;51.288;4.572;2023-07-24T04:21:03;19.00;99.90
45104;DHT22;30865;51.288;4.572;2023-07-24T04:23:29;18.90;99.90
45104;DHT22;30865;51.288;4.572;2023-07-24T04:25:54;18.90;99.90
45104;DHT22;30865;51.288;4.572;2023-07-24T04:28:20;18.90;99.90
45104;DHT22;30865;51.288;4.572;2023-07-24T04:30:45;19.00;99.90
45104;DHT22;30865;51.288;4.572;2023-07-24T04:33:11;19.00;99.90
45104;DHT22;30865;51.288;4.572;2023-07-24T04:35:36;19.00;99.90
45104;DHT22;30865;51.288;4.572;2023-07-24T04:38:02;19.10;99.90
45104;DHT22;30865;51.288;4.572;2023-07-24T04:40:27;19.10;99.90
45104;DHT22;30865;51.288;4.572;2023-07-24T04:42:53;19.20;99.90
45104;DHT22;30865;51.288;4.572;2023-07-24T04:45:18;19.20;99.90
45104;DHT22;30865;51.288;4.572;2023-07-24T04:47:44;19.10;99.90
45104;DHT22;30865;51.288;4.572;2023-07-24T04:50:09;19.20;99.90
45104;DHT22;30865;51.288;4.572;2023-07-24T04:52:35;19.20;99.90
45104;DHT22;30865;51.288;4.572;2023-07-24T04:55:00;19.30;99.90
45104;DHT22;30865;51.288;4.572;2023-07-24T04:57:26;19.30;99.90
45104;DHT22;30865;51.288;4.572;2023-07-24T04:59:51;19.30;99.90
45104;DHT22;30865;51.288;4.572;2023-07-24T05:02:17;19.30;99.90
45104;DHT22;30865;51.288;4.572;2023-07-24T05:04:42;19.40;99.90
45104;DHT22;30865;51.288;4.572;2023-07-24T05:07:08;19.30;99.90
45104;DHT22;30865;51.288;4.572;2023-07-24T05:09:33;19.30;99.90
45104;DHT22;30865;51.288;4.572;2023-07-24T05:11:59;19.30;99.90
45104;DHT22;30865;51.288;4.572;2023-07-24T05:14:24;19.30;99.90
45104;DHT22;30865;51.288;4.572;2023-07-24T05:16:50;19.40;99.90
45104;DHT22;30865;51.288;4.572;2023-07-24T05:19:15;19.50;99.90
45104;DHT22;30865;51.288;4.572;2023-07-24T05:21:41;19.50;99.90
45104;DHT22;30865;51.288;4.572;2023-07-24T05:24:06;19.70;99.90
45104;DHT22;30865;51.288;4.572;2023-07-24T05:26:32;19.70;99.90
45104;DHT22;30865;51.288;4.572;2023-07-24T05:28:57;19.70;99.90
45104;DHT22;30865;51.288;4.572;2023-07-24T05:31:23;19.70;99.90
45104;DHT22;30865;51.288;4.572;2023-07-24T05:33:48;19.70;99.90
45104;DHT22;30865;51.288;4.572;2023-07-24T05:36:14;19.70;99.90
45104;DHT22;30865;51.288;4.572;2023-07-24T05:38:39;19.70;99.90
45104;DHT22;30865;51.288;4.572;2023-07-24T05:41:05;19.60;99.90
45104;DHT22;30865;51.288;4.572;2023-07-24T05:43:31;19.60;99.90
45104;DHT22;30865;51.288;4.572;2023-07-24T05:45:58;19.70;99.90
45104;DHT22;30865;51.288;4.572;2023-07-24T05:48:23;19.70;99.90
45104;DHT22;30865;51.288;4.572;2023-07-24T05:50:50;19.80;99.90
45104;DHT22;30865;51.288;4.572;2023-07-24T05:53:16;19.90;99.90
45104;DHT22;30865;51.288;4.572;2023-07-24T05:55:42;20.10;99.90
45104;DHT22;30865;51.288;4.572;2023-07-24T05:58:08;20.00;99.90
45104;DHT22;30865;51.288;4.572;2023-07-24T06:00:33;20.10;99.90
45104;DHT22;30865;51.288;4.572;2023-07-24T06:02:59;20.10;99.90
45104;DHT22;30865;51.288;4.572;2023-07-24T06:05:25;20.10;99.90
45104;DHT22;30865;51.288;4.572;2023-07-24T06:07:50;20.20;99.90
45104;DHT22;30865;51.288;4.572;2023-07-24T06:10:16;20.20;99.90
45104;DHT22;30865;51.288;4.572;2023-07-24T06:12:41;20.20;99.90
45104;DHT22;30865;51.288;4.572;2023-07-24T06:15:07;20.30;99.90
45104;DHT22;30865;51.288;4.572;2023-07-24T06:17:33;20.40;99.90
45104;DHT22;30865;51.288;4.572;2023-07-24T06:19:58;20.40;99.90
45104;DHT22;30865;51.288;4.572;2023-07-24T06:22:24;20.40;99.90
45104;DHT22;30865;51.288;4.572;2023-07-24T06:24:49;20.40;99.90
45104;DHT22;30865;51.288;4.572;2023-07-24T06:27:15;20.40;99.90
45104;DHT22;30865;51.288;4.572;2023-07-24T06:29:41;20.50;99.90
45104;DHT22;30865;51.288;4.572;2023-07-24T06:32:07;20.50;99.90
45104;DHT22;30865;51.288;4.572;2023-07-24T06:34:33;20.50;99.90
45104;DHT22;30865;51.288;4.572;2023-07-24T06:36:58;20.60;99.90
45104;DHT22;30865;51.288;4.572;2023-07-24T06:39:24;20.60;99.90
45104;DHT22;30865;51.288;4.572;2023-07-24T06:41:52;20.70;99.90
45104;DHT22;30865;51.288;4.572;2023-07-24T06:44:17;20.80;99.90
45104;DHT22;30865;51.288;4.572;2023-07-24T06:46:43;20.90;99.90
45104;DHT22;30865;51.288;4.572;2023-07-24T06:49:08;21.00;99.90
45104;DHT22;30865;51.288;4.572;2023-07-24T06:51:35;21.00;99.90
45104;DHT22;30865;51.288;4.572;2023-07-24T06:54:00;21.10;99.90
45104;DHT22;30865;51.288;4.572;2023-07-24T06:56:26;21.20;99.90
45104;DHT22;30865;51.288;4.572;2023-07-24T06:58:51;21.20;99.90
45104;DHT22;30865;51.288;4.572;2023-07-24T07:01:17;21.30;99.90
45104;DHT22;30865;51.288;4.572;2023-07-24T07:03:42;21.30;99.90
45104;DHT22;30865;51.288;4.572;2023-07-24T07:06:08;21.30;99.90
45104;DHT22;30865;51.288;4.572;2023-07-24T07:08:35;21.20;99.90
45104;DHT22;30865;51.288;4.572;2023-07-24T07:11:00;21.20;99.90
45104;DHT22;30865;51.288;4.572;2023-07-24T07:13:27;21.20;99.90
45104;DHT22;30865;51.288;4.572;2023-07-24T07:15:52;21.30;99.90
45104;DHT22;30865;51.288;4.572;2023-07-24T07:18:18;21.40;99.90
45104;DHT22;30865;51.288;4.572;2023-07-24T07:20:50;21.40;99.90
45104;DHT22;30865;51.288;4.572;2023-07-24T07:23:16;21.40;99.90
45104;DHT22;30865;51.288;4.572;2023-07-24T07:25:42;21.50;99.90
45104;DHT22;30865;51.288;4.572;2023-07-24T07:28:17;21.60;99.90
45104;DHT22;30865;51.288;4.572;2023-07-24T07:30:43;21.60;99.90
45104;DHT22;30865;51.288;4.572;2023-07-24T07:33:09;21.50;99.90
45104;DHT22;30865;51.288;4.572;2023-07-24T07:35:35;21.50;99.90
45104;DHT22;30865;51.288;4.572;2023-07-24T07:38:01;21.60;99.90
45104;DHT22;30865;51.288;4.572;2023-07-24T07:40:27;21.70;99.90
45104;DHT22;30865;51.288;4.572;2023-07-24T07:42:53;21.70;99.90
45104;DHT22;30865;51.288;4.572;2023-07-24T07:45:19;21.80;99.90
45104;DHT22;30865;51.288;4.572;2023-07-24T07:47:44;22.00;99.90
45104;DHT22;30865;51.288;4.572;2023-07-24T07:50:10;22.10;99.90
45104;DHT22;30865;51.288;4.572;2023-07-24T07:52:36;22.20;99.90
45104;DHT22;30865;51.288;4.572;2023-07-24T07:55:02;22.30;99.90
45104;DHT22;30865;51.288;4.572;2023-07-24T07:57:27;22.40;99.90
45104;DHT22;30865;51.288;4.572;2023-07-24T07:59:53;22.40;99.90
45104;DHT22;30865;51.288;4.572;2023-07-24T08:02:18;22.50;99.90
45104;DHT22;30865;51.288;4.572;2023-07-24T08:04:47;22.50;99.90
45104;DHT22;30865;51.288;4.572;2023-07-24T08:07:12;22.50;99.90
45104;DHT22;30865;51.288;4.572;2023-07-24T08:09:38;22.50;99.90
45104;DHT22;30865;51.288;4.572;2023-07-24T08:12:04;22.40;99.90
45104;DHT22;30865;51.288;4.572;2023-07-24T08:14:30;22.40;99.90
45104;DHT22;30865;51.288;4.572;2023-07-24T08:16:55;22.40;99.90
45104;DHT22;30865;51.288;4.572;2023-07-24T08:19:21;22.40;99.90
45104;DHT22;30865;51.288;4.572;2023-07-24T08:21:47;22.40;99.90
45104;DHT22;30865;51.288;4.572;2023-07-24T08:24:12;22.40;99.90
45104;DHT22;30865;51.288;4.572;2023-07-24T08:26:38;22.30;99.90
45104;DHT22;30865;51.288;4.572;2023-07-24T08:29:04;22.20;99.90
45104;DHT22;30865;51.288;4.572;2023-07-24T08:31:30;22.20;99.90
45104;DHT22;30865;51.288;4.572;2023-07-24T08:33:55;22.10;99.90
45104;DHT22;30865;51.288;4.572;2023-07-24T08:36:21;21.80;99.90
45104;DHT22;30865;51.288;4.572;2023-07-24T08:38:46;21.60;99.90
45104;DHT22;30865;51.288;4.572;2023-07-24T08:41:14;21.50;99.90
45104;DHT22;30865;51.288;4.572;2023-07-24T08:43:41;21.50;99.90
45104;DHT22;30865;51.288;4.572;2023-07-24T08:46:08;21.60;99.90
45104;DHT22;30865;51.288;4.572;2023-07-24T08:48:38;21.60;99.90
45104;DHT22;30865;51.288;4.572;2023-07-24T08:51:15;21.60;99.90
45104;DHT22;30865;51.288;4.572;2023-07-24T08:53:43;21.60;99.90
45104;DHT22;30865;51.288;4.572;2023-07-24T08:56:10;21.50;99.90
45104;DHT22;30865;51.288;4.572;2023-07-24T08:58:38;21.50;99.90
45104;DHT22;30865;51.288;4.572;2023-07-24T09:01:05;21.50;99.90
45104;DHT22;30865;51.288;4.572;2023-07-24T09:03:31;21.40;99.90
45104;DHT22;30865;51.288;4.572;2023-07-24T09:05:57;21.50;99.90
45104;DHT22;30865;51.288;4.572;2023-07-24T09:08:34;21.50;99.90
45104;DHT22;30865;51.288;4.572;2023-07-24T09:11:01;21.50;99.90
45104;DHT22;30865;51.288;4.572;2023-07-24T09:13:27;21.50;99.90
45104;DHT22;30865;51.288;4.572;2023-07-24T09:15:52;21.40;99.90
45104;DHT22;30865;51.288;4.572;2023-07-24T09:18:19;21.50;99.90
45104;DHT22;30865;51.288;4.572;2023-07-24T09:20:45;21.50;99.90
45104;DHT22;30865;51.288;4.572;2023-07-24T09:23:12;21.70;99.90
45104;DHT22;30865;51.288;4.572;2023-07-24T09:25:39;21.80;99.90
45104;DHT22;30865;51.288;4.572;2023-07-24T09:28:12;21.90;99.90
45104;DHT22;30865;51.288;4.572;2023-07-24T09:30:38;22.00;99.90
45104;DHT22;30865;51.288;4.572;2023-07-24T09:33:04;22.00;99.90
45104;DHT22;30865;51.288;4.572;2023-07-24T09:35:30;22.00;99.90
45104;DHT22;30865;51.288;4.572;2023-07-24T09:40:37;21.90;99.90
45104;DHT22;30865;51.288;4.572;2023-07-24T09:43:13;21.90;99.90
45104;DHT22;30865;51.288;4.572;2023-07-24T09:45:38;21.90;99.90
45104;DHT22;30865;51.288;4.572;2023-07-24T09:48:04;21.80;99.90
45104;DHT22;30865;51.288;4.572;2023-07-24T09:50:31;21.80;99.90
45104;DHT22;30865;51.288;4.572;2023-07-24T09:52:58;21.70;99.90
45104;DHT22;30865;51.288;4.572;2023-07-24T09:55:30;21.70;99.90
45104;DHT22;30865;51.288;4.572;2023-07-24T09:57:58;21.70;99.90
45104;DHT22;30865;51.288;4.572;2023-07-24T10:00:25;21.80;99.90
45104;DHT22;30865;51.288;4.572;2023-07-24T10:02:51;21.70;99.90
45104;DHT22;30865;51.288;4.572;2023-07-24T10:05:17;21.60;99.90
45104;DHT22;30865;51.288;4.572;2023-07-24T10:07:43;21.70;99.90
45104;DHT22;30865;51.288;4.572;2023-07-24T10:10:09;21.70;99.90
45104;DHT22;30865;51.288;4.572;2023-07-24T10:12:35;21.50;99.90
45104;DHT22;30865;51.288;4.572;2023-07-24T10:15:01;21.50;99.90
45104;DHT22;30865;51.288;4.572;2023-07-24T10:17:37;21.40;99.90
45104;DHT22;30865;51.288;4.572;2023-07-24T10:20:05;21.30;99.90
45104;DHT22;30865;51.288;4.572;2023-07-24T10:22:31;21.30;99.90
45104;DHT22;30865;51.288;4.572;2023-07-24T10:24:57;21.40;99.90
45104;DHT22;30865;51.288;4.572;2023-07-24T10:27:25;21.30;99.90
45104;DHT22;30865;51.288;4.572;2023-07-24T10:30:04;21.20;99.90
45104;DHT22;30865;51.288;4.572;2023-07-24T10:32:30;21.00;99.90
45104;DHT22;30865;51.288;4.572;2023-07-24T10:35:09;21.00;99.90
45104;DHT22;30865;51.288;4.572;2023-07-24T10:37:35;20.80;99.90
45104;DHT22;30865;51.288;4.572;2023-07-24T10:40:02;20.70;99.90
45104;DHT22;30865;51.288;4.572;2023-07-24T10:42:29;20.80;99.90
45104;DHT22;30865;51.288;4.572;2023-07-24T10:45:07;20.60;99.90
45104;DHT22;30865;51.288;4.572;2023-07-24T10:47:33;20.60;99.90
45104;DHT22;30865;51.288;4.572;2023-07-24T10:50:00;20.60;99.90
45104;DHT22;30865;51.288;4.572;2023-07-24T10:52:31;20.50;99.90
45104;DHT22;30865;51.288;4.572;2023-07-24T10:55:03;20.50;99.90
45104;DHT22;30865;51.288;4.572;2023-07-24T10:57:30;20.50;99.90
45104;DHT22;30865;51.288;4.572;2023-07-24T10:59:55;20.40;99.90
45104;DHT22;30865;51.288;4.572;2023-07-24T11:02:21;20.30;99.90
45104;DHT22;30865;51.288;4.572;2023-07-24T11:04:47;20.10;99.90
45104;DHT22;30865;51.288;4.572;2023-07-24T11:07:13;19.70;99.90
45104;DHT22;30865;51.288;4.572;2023-07-24T11:09:40;19.60;99.90
45104;DHT22;30865;51.288;4.572;2023-07-24T11:12:10;19.50;99.90
45104;DHT22;30865;51.288;4.572;2023-07-24T11:14:35;19.40;99.90
45104;DHT22;30865;51.288;4.572;2023-07-24T11:17:01;19.30;99.90
45104;DHT22;30865;51.288;4.572;2023-07-24T11:19:26;19.10;99.90
45104;DHT22;30865;51.288;4.572;2023-07-24T11:21:52;19.00;99.90
45104;DHT22;30865;51.288;4.572;2023-07-24T11:24:17;19.00;99.90
45104;DHT22;30865;51.288;4.572;2023-07-24T11:26:43;19.10;99.90
45104;DHT22;30865;51.288;4.572;2023-07-24T11:29:12;19.10;99.90
45104;DHT22;30865;51.288;4.572;2023-07-24T11:31:38;19.10;99.90
45104;DHT22;30865;51.288;4.572;2023-07-24T11:34:05;19.10;99.90
45104;DHT22;30865;51.288;4.572;2023-07-24T11:36:30;19.20;99.90
45104;DHT22;30865;51.288;4.572;2023-07-24T11:38:56;19.20;99.90
45104;DHT22;30865;51.288;4.572;2023-07-24T11:41:22;19.20;99.90
45104;DHT22;30865;51.288;4.572;2023-07-24T11:43:49;19.30;99.90
45104;DHT22;30865;51.288;4.572;2023-07-24T11:46:25;19.40;99.90
45104;DHT22;30865;51.288;4.572;2023-07-24T11:48:50;19.70;99.90
45104;DHT22;30865;51.288;4.572;2023-07-24T11:51:19;20.20;99.90
45104;DHT22;30865;51.288;4.572;2023-07-24T11:53:44;20.40;99.90
45104;DHT22;30865;51.288;4.572;2023-07-24T11:56:15;20.60;99.90
45104;DHT22;30865;51.288;4.572;2023-07-24T11:58:41;20.20;99.90
45104;DHT22;30865;51.288;4.572;2023-07-24T12:01:06;20.20;99.90
45104;DHT22;30865;51.288;4.572;2023-07-24T12:03:32;20.10;99.90
45104;DHT22;30865;51.288;4.572;2023-07-24T12:05:57;19.90;99.90
45104;DHT22;30865;51.288;4.572;2023-07-24T12:08:34;19.80;99.90
45104;DHT22;30865;51.288;4.572;2023-07-24T12:11:00;19.90;99.90
45104;DHT22;30865;51.288;4.572;2023-07-24T12:13:26;19.90;99.90
45104;DHT22;30865;51.288;4.572;2023-07-24T12:15:52;19.90;99.90
45104;DHT22;30865;51.288;4.572;2023-07-24T12:18:18;19.90;99.90
45104;DHT22;30865;51.288;4.572;2023-07-24T12:20:43;20.00;99.90
45104;DHT22;30865;51.288;4.572;2023-07-24T12:23:09;20.10;99.90
45104;DHT22;30865;51.288;4.572;2023-07-24T12:25:35;20.10;99.90
45104;DHT22;30865;51.288;4.572;2023-07-24T12:28:00;20.10;99.90
45104;DHT22;30865;51.288;4.572;2023-07-24T12:30:26;20.30;99.90
45104;DHT22;30865;51.288;4.572;2023-07-24T12:32:51;20.40;99.90
45104;DHT22;30865;51.288;4.572;2023-07-24T12:35:17;20.50;99.90
45104;DHT22;30865;51.288;4.572;2023-07-24T12:37:46;20.70;99.90
45104;DHT22;30865;51.288;4.572;2023-07-24T12:40:11;20.70;99.90
45104;DHT22;30865;51.288;4.572;2023-07-24T12:42:37;20.80;99.90
45104;DHT22;30865;51.288;4.572;2023-07-24T12:45:03;20.80;99.90
45104;DHT22;30865;51.288;4.572;2023-07-24T12:47:29;20.80;99.90
45104;DHT22;30865;51.288;4.572;2023-07-24T12:49:58;20.90;99.90
45104;DHT22;30865;51.288;4.572;2023-07-24T12:52:25;21.00;99.90
45104;DHT22;30865;51.288;4.572;2023-07-24T12:54:50;21.40;99.90
45104;DHT22;30865;51.288;4.572;2023-07-24T12:57:16;21.70;99.90
45104;DHT22;30865;51.288;4.572;2023-07-24T12:59:41;22.00;99.90
45104;DHT22;30865;51.288;4.572;2023-07-24T13:02:07;22.20;99.90
45104;DHT22;30865;51.288;4.572;2023-07-24T13:04:32;22.50;99.90
45104;DHT22;30865;51.288;4.572;2023-07-24T13:06:58;22.70;99.90
45104;DHT22;30865;51.288;4.572;2023-07-24T13:09:25;22.60;99.90
45104;DHT22;30865;51.288;4.572;2023-07-24T13:11:51;22.60;99.90
45104;DHT22;30865;51.288;4.572;2023-07-24T13:14:17;22.60;99.90
45104;DHT22;30865;51.288;4.572;2023-07-24T13:16:43;22.60;99.90
45104;DHT22;30865;51.288;4.572;2023-07-24T13:19:08;22.80;99.90
45104;DHT22;30865;51.288;4.572;2023-07-24T13:21:34;23.00;99.90
45104;DHT22;30865;51.288;4.572;2023-07-24T13:23:59;23.20;99.90
45104;DHT22;30865;51.288;4.572;2023-07-24T13:26:25;23.10;99.90
45104;DHT22;30865;51.288;4.572;2023-07-24T13:28:50;23.30;99.90
45104;DHT22;30865;51.288;4.572;2023-07-24T13:31:18;23.40;99.90
45104;DHT22;30865;51.288;4.572;2023-07-24T13:33:44;23.60;99.90
45104;DHT22;30865;51.288;4.572;2023-07-24T13:36:09;23.50;99.90
45104;DHT22;30865;51.288;4.572;2023-07-24T13:38:35;23.50;99.90
45104;DHT22;30865;51.288;4.572;2023-07-24T13:41:01;23.40;99.90
45104;DHT22;30865;51.288;4.572;2023-07-24T13:43:27;23.40;99.90
45104;DHT22;30865;51.288;4.572;2023-07-24T13:45:53;23.40;99.90
45104;DHT22;30865;51.288;4.572;2023-07-24T13:48:18;23.50;99.90
45104;DHT22;30865;51.288;4.572;2023-07-24T13:50:44;23.60;99.90
45104;DHT22;30865;51.288;4.572;2023-07-24T13:53:09;23.50;99.90
45104;DHT22;30865;51.288;4.572;2023-07-24T13:55:35;23.50;99.90
45104;DHT22;30865;51.288;4.572;2023-07-24T13:58:00;23.70;99.90
45104;DHT22;30865;51.288;4.572;2023-07-24T14:00:26;23.90;99.90
45104;DHT22;30865;51.288;4.572;2023-07-24T14:02:51;23.90;99.90
45104;DHT22;30865;51.288;4.572;2023-07-24T14:05:17;24.30;99.90
45104;DHT22;30865;51.288;4.572;2023-07-24T14:07:42;24.50;99.90
45104;DHT22;30865;51.288;4.572;2023-07-24T14:10:09;24.50;99.90
45104;DHT22;30865;51.288;4.572;2023-07-24T14:12:35;24.60;99.90
45104;DHT22;30865;51.288;4.572;2023-07-24T14:15:01;24.70;99.90
45104;DHT22;30865;51.288;4.572;2023-07-24T14:17:27;24.60;99.90
45104;DHT22;30865;51.288;4.572;2023-07-24T14:19:52;24.90;99.90
45104;DHT22;30865;51.288;4.572;2023-07-24T14:22:18;25.20;99.90
45104;DHT22;30865;51.288;4.572;2023-07-24T14:24:43;25.00;99.90
45104;DHT22;30865;51.288;4.572;2023-07-24T14:27:09;25.30;99.90
45104;DHT22;30865;51.288;4.572;2023-07-24T14:29:34;25.70;99.90
45104;DHT22;30865;51.288;4.572;2023-07-24T14:32:06;25.50;99.90
45104;DHT22;30865;51.288;4.572;2023-07-24T14:34:32;25.00;99.90
45104;DHT22;30865;51.288;4.572;2023-07-24T14:36:57;24.50;99.90
45104;DHT22;30865;51.288;4.572;2023-07-24T14:39:23;24.30;99.90
45104;DHT22;30865;51.288;4.572;2023-07-24T14:41:48;24.40;99.90
45104;DHT22;30865;51.288;4.572;2023-07-24T14:44:14;24.40;99.90
45104;DHT22;30865;51.288;4.572;2023-07-24T14:46:39;24.50;99.90
45104;DHT22;30865;51.288;4.572;2023-07-24T14:49:05;24.50;99.90
45104;DHT22;30865;51.288;4.572;2023-07-24T14:51:30;24.70;99.90
45104;DHT22;30865;51.288;4.572;2023-07-24T14:53:56;24.50;99.90
45104;DHT22;30865;51.288;4.572;2023-07-24T14:56:21;24.20;99.90
45104;DHT22;30865;51.288;4.572;2023-07-24T14:58:47;24.30;99.90
45104;DHT22;30865;51.288;4.572;2023-07-24T15:01:12;24.20;99.90
45104;DHT22;30865;51.288;4.572;2023-07-24T15:03:38;24.20;99.90
45104;DHT22;30865;51.288;4.572;2023-07-24T15:06:04;23.90;99.90
45104;DHT22;30865;51.288;4.572;2023-07-24T15:08:32;24.00;99.90
45104;DHT22;30865;51.288;4.572;2023-07-24T15:10:57;24.10;99.90
45104;DHT22;30865;51.288;4.572;2023-07-24T15:13:23;24.10;99.90
45104;DHT22;30865;51.288;4.572;2023-07-24T15:15:48;24.20;99.90
45104;DHT22;30865;51.288;4.572;2023-07-24T15:18:14;24.20;99.90
45104;DHT22;30865;51.288;4.572;2023-07-24T15:20:39;24.10;99.90
45104;DHT22;30865;51.288;4.572;2023-07-24T15:23:05;24.50;99.90
45104;DHT22;30865;51.288;4.572;2023-07-24T15:25:30;24.10;99.90
45104;DHT22;30865;51.288;4.572;2023-07-24T15:27:56;24.00;99.90
45104;DHT22;30865;51.288;4.572;2023-07-24T15:30:22;24.00;99.90